createdAt,value
2017-12-02T00:01:00.750Z,17.10
2017-12-02T00:03:34.294Z,17.70
2017-12-02T00:06:08.354Z,22.20
2017-12-02T00:08:40.946Z,21.00
2017-12-02T00:11:13.491Z,21.47
2017-12-02T00:13:46.991Z,18.33
2017-12-02T00:16:20.637Z,20.93
2017-12-02T00:18:53.555Z,22.97
2017-12-02T00:21:27.016Z,21.27
2017-12-02T00:23:59.650Z,19.13
2017-12-02T00:26:32.800Z,21.70
2017-12-02T00:29:05.598Z,22.13
2017-12-02T00:31:38.839Z,19.70
2017-12-02T00:34:11.319Z,21.30
2017-12-02T00:36:43.879Z,21.67
2017-12-02T00:39:17.167Z,21.07
2017-12-02T00:41:49.940Z,22.93
2017-12-02T00:44:23.192Z,21.37
2017-12-02T00:46:55.960Z,19.47
2017-12-02T00:49:29.379Z,22.77
2017-12-02T00:52:02.164Z,21.60
2017-12-02T00:54:35.328Z,21.97
2017-12-02T00:57:08.035Z,20.53
2017-12-02T00:59:40.348Z,22.23
2017-12-02T01:02:13.563Z,20.43
2017-12-02T01:04:47.163Z,21.03
2017-12-02T01:07:20.651Z,19.57
2017-12-02T01:09:53.468Z,23.67
2017-12-02T01:12:26.836Z,27.77
2017-12-02T01:14:59.460Z,29.77
2017-12-02T01:17:32.039Z,26.30
2017-12-02T01:20:04.617Z,23.47
2017-12-02T01:22:37.864Z,22.90
2017-12-02T01:25:10.770Z,24.03
2017-12-02T01:27:44.488Z,18.90
2017-12-02T01:30:18.267Z,19.40
2017-12-02T01:32:51.498Z,18.07
2017-12-02T01:35:24.283Z,20.90
2017-12-02T01:37:57.067Z,19.20
2017-12-02T01:40:29.447Z,21.00
2017-12-02T01:43:02.377Z,20.87
2017-12-02T01:45:36.299Z,23.23
2017-12-02T01:48:09.170Z,21.20
2017-12-02T01:50:42.483Z,20.07
2017-12-02T01:53:15.597Z,21.13
2017-12-02T01:55:48.194Z,18.40
2017-12-02T01:58:20.872Z,18.50
2017-12-02T02:00:53.964Z,17.37
2017-12-02T02:03:26.948Z,19.23
2017-12-02T02:06:00.337Z,18.67
2017-12-02T02:08:32.983Z,18.03
2017-12-02T02:11:06.324Z,17.27
2017-12-02T02:13:40.477Z,16.93
2017-12-02T02:16:13.807Z,17.07
2017-12-02T02:18:47.501Z,16.97
2017-12-02T02:21:21.390Z,16.77
2017-12-02T02:23:55.008Z,13.97
2017-12-02T02:26:28.260Z,17.17
2017-12-02T02:29:01.569Z,16.07
2017-12-02T02:31:35.106Z,15.97
2017-12-02T02:34:07.825Z,15.37
2017-12-02T02:36:41.279Z,16.80
2017-12-02T02:39:15.075Z,15.37
2017-12-02T02:41:48.948Z,16.57
2017-12-02T02:44:21.808Z,16.27
2017-12-02T02:46:54.719Z,16.63
2017-12-02T02:49:27.182Z,16.77
2017-12-02T02:51:59.811Z,15.87
2017-12-02T02:54:33.157Z,16.67
2017-12-02T02:57:05.622Z,16.63
2017-12-02T02:59:38.728Z,15.43
2017-12-02T03:02:11.705Z,16.83
2017-12-02T03:04:44.222Z,16.90
2017-12-02T03:07:17.493Z,16.27
2017-12-02T03:09:50.042Z,15.87
2017-12-02T03:12:22.703Z,16.43
2017-12-02T03:14:55.099Z,17.33
2017-12-02T03:17:28.413Z,16.53
2017-12-02T03:20:01.101Z,19.07
2017-12-02T03:22:33.736Z,36.20
2017-12-02T03:25:07.035Z,50.23
2017-12-02T03:27:40.099Z,35.07
2017-12-02T03:30:13.059Z,53.60
2017-12-02T03:32:45.635Z,40.90
2017-12-02T03:35:18.887Z,34.47
2017-12-02T03:37:51.768Z,28.03
2017-12-02T03:40:25.931Z,26.47
2017-12-02T03:42:59.594Z,23.23
2017-12-02T03:45:32.184Z,24.40
2017-12-02T03:48:05.308Z,25.70
2017-12-02T03:50:37.957Z,30.30
2017-12-02T03:53:11.269Z,29.67
2017-12-02T03:55:44.474Z,32.10
2017-12-02T03:58:17.521Z,32.80
2017-12-02T04:00:50.176Z,40.47
2017-12-02T04:03:24.521Z,25.67
2017-12-02T04:05:57.690Z,27.07
2017-12-02T04:08:30.284Z,27.27
2017-12-02T04:11:04.038Z,24.23
2017-12-02T04:13:37.003Z,21.27
2017-12-02T04:16:09.767Z,20.50
2017-12-02T04:18:42.548Z,20.73
2017-12-02T04:21:15.116Z,20.77
2017-12-02T04:23:47.745Z,19.83
2017-12-02T04:26:20.294Z,18.90
2017-12-02T04:28:52.836Z,17.73
2017-12-02T04:31:26.075Z,18.80
2017-12-02T04:33:59.503Z,16.70
2017-12-02T04:36:32.166Z,16.97
2017-12-02T04:39:05.975Z,16.00
2017-12-02T04:41:39.150Z,17.63
2017-12-02T04:44:11.810Z,17.33
2017-12-02T04:46:45.399Z,16.53
2017-12-02T04:49:18.722Z,15.80
2017-12-02T04:51:52.054Z,14.87
2017-12-02T04:54:24.558Z,14.03
2017-12-02T04:56:57.834Z,12.77
2017-12-02T04:59:30.809Z,13.33
2017-12-02T05:02:04.206Z,14.93
2017-12-02T05:04:37.628Z,12.90
2017-12-02T05:07:10.454Z,11.50
2017-12-02T05:09:43.229Z,11.40
2017-12-02T05:12:15.991Z,17.33
2017-12-02T05:14:48.386Z,17.13
2017-12-02T05:17:20.961Z,14.70
2017-12-02T05:19:53.380Z,13.07
2017-12-02T05:22:26.634Z,13.93
2017-12-02T05:25:00.271Z,14.97
2017-12-02T05:27:33.542Z,16.70
2017-12-02T05:30:06.913Z,17.87
2017-12-02T05:32:40.235Z,25.77
2017-12-02T05:35:13.886Z,26.13
2017-12-02T05:37:47.490Z,24.33
2017-12-02T05:40:20.102Z,23.20
2017-12-02T05:42:52.522Z,20.33
2017-12-02T05:45:25.930Z,24.70
2017-12-02T05:47:58.425Z,23.87
2017-12-02T05:50:30.822Z,26.13
2017-12-02T05:53:04.290Z,19.90
2017-12-02T05:55:37.551Z,27.07
2017-12-02T05:58:10.219Z,31.03
2017-12-02T06:00:43.387Z,26.60
2017-12-02T06:03:17.290Z,33.13
2017-12-02T06:05:49.934Z,28.50
2017-12-02T06:08:22.502Z,22.73
2017-12-02T06:10:54.998Z,25.13
2017-12-02T06:13:27.397Z,27.20
2017-12-02T06:16:00.395Z,30.43
2017-12-02T06:18:33.792Z,31.27
2017-12-02T06:21:07.285Z,26.30
2017-12-02T06:23:40.552Z,24.07
2017-12-02T06:26:13.490Z,28.07
2017-12-02T06:28:46.154Z,27.10
2017-12-02T06:31:18.633Z,24.40
2017-12-02T06:33:52.855Z,30.13
2017-12-02T06:36:25.429Z,28.50
2017-12-02T06:38:59.582Z,29.53
2017-12-02T06:41:32.300Z,26.07
2017-12-02T06:44:05.799Z,24.40
2017-12-02T06:46:38.451Z,27.93
2017-12-02T06:49:10.929Z,24.23
2017-12-02T06:51:45.090Z,32.40
2017-12-02T06:54:17.725Z,33.20
2017-12-02T06:56:51.054Z,25.73
2017-12-02T06:59:24.196Z,31.37
2017-12-02T07:01:56.891Z,29.53
2017-12-02T07:04:29.359Z,31.90
2017-12-02T07:07:03.439Z,40.27
2017-12-02T07:09:36.202Z,34.17
2017-12-02T07:12:10.289Z,29.27
2017-12-02T07:14:43.911Z,28.67
2017-12-02T07:17:16.626Z,32.80
2017-12-02T07:19:49.551Z,27.90
2017-12-02T07:22:23.012Z,33.27
2017-12-02T07:24:56.284Z,27.63
2017-12-02T07:27:29.991Z,31.97
2017-12-02T07:30:03.692Z,28.20
2017-12-02T07:32:36.414Z,32.50
2017-12-02T07:35:09.099Z,32.53
2017-12-02T07:37:43.029Z,36.67
2017-12-02T07:40:15.911Z,28.47
2017-12-02T07:42:55.911Z,30.27
2017-12-02T07:45:28.586Z,31.17
2017-12-02T07:48:01.802Z,34.27
2017-12-02T07:50:34.910Z,33.63
2017-12-02T07:53:07.652Z,31.70
2017-12-02T07:55:41.779Z,31.87
2017-12-02T07:58:14.658Z,31.80
2017-12-02T08:00:48.023Z,31.77
2017-12-02T08:03:21.396Z,31.50
2017-12-02T08:05:54.331Z,28.33
2017-12-02T08:08:27.058Z,29.13
2017-12-02T08:10:59.863Z,27.23
2017-12-02T08:13:33.149Z,30.53
2017-12-02T08:16:06.871Z,29.80
2017-12-02T08:18:40.514Z,33.13
2017-12-02T08:21:13.155Z,30.47
2017-12-02T08:23:46.534Z,29.77
2017-12-02T08:26:20.547Z,28.33
2017-12-02T08:28:53.810Z,30.13
2017-12-02T08:31:27.710Z,30.57
2017-12-02T08:34:00.318Z,34.97
2017-12-02T08:36:33.764Z,29.93
2017-12-02T08:39:07.103Z,28.30
2017-12-02T08:41:40.475Z,32.43
2017-12-02T08:44:12.965Z,29.03
2017-12-02T08:46:45.493Z,30.87
2017-12-02T08:49:18.194Z,30.83
2017-12-02T08:51:51.811Z,32.50
2017-12-02T08:54:24.625Z,27.07
2017-12-02T08:56:57.142Z,31.90
2017-12-02T08:59:29.506Z,24.27
2017-12-02T09:02:03.280Z,26.80
2017-12-02T09:04:36.583Z,27.80
2017-12-02T09:07:10.730Z,32.33
2017-12-02T09:09:43.210Z,32.73
2017-12-02T09:12:16.582Z,33.57
2017-12-02T09:14:49.159Z,30.73
2017-12-02T09:17:21.570Z,32.33
2017-12-02T09:19:54.083Z,29.57
2017-12-02T09:22:26.618Z,33.87
2017-12-02T09:24:59.821Z,33.23
2017-12-02T09:27:32.832Z,32.80
2017-12-02T09:30:06.911Z,29.07
2017-12-02T09:32:40.795Z,25.73
2017-12-02T09:35:13.626Z,30.10
2017-12-02T09:37:46.231Z,27.30
2017-12-02T09:40:19.434Z,31.43
2017-12-02T09:42:53.134Z,30.80
2017-12-02T09:45:26.207Z,28.50
2017-12-02T09:47:58.837Z,30.40
2017-12-02T09:50:31.710Z,26.50
2017-12-02T09:53:04.894Z,27.97
2017-12-02T09:55:37.647Z,27.17
2017-12-02T09:58:10.174Z,22.43
2017-12-02T10:00:42.966Z,28.97
2017-12-02T10:03:16.367Z,25.70
2017-12-02T10:05:49.915Z,22.60
2017-12-02T10:08:22.849Z,25.00
2017-12-02T10:10:55.322Z,25.67
2017-12-02T10:13:27.720Z,25.17
2017-12-02T10:16:00.791Z,25.57
2017-12-02T10:18:34.582Z,28.37
2017-12-02T10:21:07.953Z,27.03
2017-12-02T10:23:40.897Z,27.27
2017-12-02T10:26:14.903Z,29.00
2017-12-02T10:28:48.650Z,23.03
2017-12-02T10:31:21.306Z,24.60
2017-12-02T10:33:54.167Z,25.43
2017-12-02T10:36:26.550Z,21.77
2017-12-02T10:38:59.806Z,23.13
2017-12-02T10:41:32.222Z,23.20
2017-12-02T10:44:04.823Z,23.43
2017-12-02T10:46:38.208Z,22.43
2017-12-02T10:49:12.211Z,20.43
2017-12-02T10:51:44.893Z,24.10
2017-12-02T10:54:18.035Z,21.13
2017-12-02T10:56:50.761Z,25.27
2017-12-02T10:59:23.250Z,27.03
2017-12-02T11:01:57.214Z,28.60
2017-12-02T11:04:30.743Z,26.63
2017-12-02T11:07:03.470Z,26.53
2017-12-02T11:09:37.603Z,22.80
2017-12-02T11:12:11.167Z,26.00
2017-12-02T11:14:44.075Z,27.30
2017-12-02T11:17:16.476Z,25.17
2017-12-02T11:19:48.891Z,26.27
2017-12-02T11:22:21.218Z,24.27
2017-12-02T11:24:53.599Z,22.33
2017-12-02T11:27:26.151Z,23.13
2017-12-02T11:30:00.261Z,23.97
2017-12-02T11:32:32.913Z,24.23
2017-12-02T11:35:06.179Z,24.43
2017-12-02T11:37:39.430Z,25.93
2017-12-02T11:40:12.679Z,19.37
2017-12-02T11:42:46.390Z,24.80
2017-12-02T11:45:18.989Z,23.37
2017-12-02T11:47:51.367Z,23.63
2017-12-02T11:50:24.207Z,23.60
2017-12-02T11:52:56.961Z,25.10
2017-12-02T11:55:30.626Z,21.93
2017-12-02T11:58:03.462Z,23.97
2017-12-02T12:00:37.092Z,22.37
2017-12-02T12:03:09.669Z,22.40
2017-12-02T12:05:43.011Z,23.93
2017-12-02T12:08:16.679Z,22.90
2017-12-02T12:10:49.280Z,22.27
2017-12-02T12:13:22.754Z,23.37
2017-12-02T12:15:55.834Z,24.60
2017-12-02T12:18:28.584Z,26.40
2017-12-02T12:21:00.961Z,25.73
2017-12-02T12:23:34.321Z,26.57
2017-12-02T12:26:08.021Z,27.27
2017-12-02T12:28:41.700Z,30.00
2017-12-02T12:31:14.564Z,26.03
2017-12-02T12:33:47.909Z,31.20
2017-12-02T12:36:21.022Z,29.47
2017-12-02T12:38:54.493Z,29.87
2017-12-02T12:41:28.128Z,26.00
2017-12-02T12:44:00.799Z,29.23
2017-12-02T12:46:34.050Z,27.77
2017-12-02T12:49:07.422Z,29.17
2017-12-02T12:51:40.316Z,27.97
2017-12-02T12:54:13.594Z,31.30
2017-12-02T12:56:46.522Z,30.37
2017-12-02T12:59:19.425Z,28.60
2017-12-02T13:01:53.554Z,24.57
2017-12-02T13:04:26.505Z,31.23
2017-12-02T13:07:00.215Z,29.63
2017-12-02T13:09:33.552Z,32.27
2017-12-02T13:12:06.636Z,29.70
2017-12-02T13:14:39.376Z,30.87
2017-12-02T13:17:11.827Z,27.83
2017-12-02T13:19:44.403Z,27.50
2017-12-02T13:22:17.164Z,29.73
2017-12-02T13:24:49.625Z,30.03
2017-12-02T13:27:22.246Z,26.97
2017-12-02T13:29:55.364Z,22.97
2017-12-02T13:32:29.070Z,24.47
2017-12-02T13:35:02.213Z,29.50
2017-12-02T13:37:35.731Z,26.70
2017-12-02T13:40:08.542Z,26.37
2017-12-02T13:42:40.837Z,25.70
2017-12-02T13:45:13.224Z,25.33
2017-12-02T13:47:45.735Z,27.93
2017-12-02T13:50:18.279Z,27.50
2017-12-02T13:52:50.825Z,26.57
2017-12-02T13:55:23.150Z,28.10
2017-12-02T13:57:56.370Z,25.67
2017-12-02T14:00:29.598Z,24.03
2017-12-02T14:03:02.854Z,29.80
2017-12-02T14:05:36.141Z,22.87
2017-12-02T14:08:08.584Z,25.73
2017-12-02T14:10:42.639Z,25.40
2017-12-02T14:13:15.331Z,25.00
2017-12-02T14:15:47.670Z,24.20
2017-12-02T14:18:20.808Z,26.17
2017-12-02T14:20:53.286Z,22.80
2017-12-02T14:23:27.362Z,25.10
2017-12-02T14:26:00.620Z,25.27
2017-12-02T14:28:33.233Z,23.33
2017-12-02T14:31:06.449Z,24.10
2017-12-02T14:33:38.911Z,25.80
2017-12-02T14:36:12.313Z,26.90
2017-12-02T14:38:46.205Z,26.20
2017-12-02T14:41:19.481Z,24.30
2017-12-02T14:43:52.033Z,27.10
2017-12-02T14:46:26.014Z,26.17
2017-12-02T14:48:59.390Z,24.67
2017-12-02T14:51:32.074Z,26.00
2017-12-02T14:54:04.390Z,29.07
2017-12-02T14:56:38.479Z,28.80
2017-12-02T14:59:11.062Z,32.47
2017-12-02T15:01:43.497Z,26.03
2017-12-02T15:04:16.632Z,28.47
2017-12-02T15:06:50.049Z,27.70
2017-12-02T15:09:23.239Z,25.97
2017-12-02T15:11:55.829Z,26.83
2017-12-02T15:14:28.155Z,27.20
2017-12-02T15:17:01.481Z,28.17
2017-12-02T15:19:34.832Z,26.50
2017-12-02T15:22:08.843Z,27.27
2017-12-02T15:24:41.583Z,27.93
2017-12-02T15:27:14.859Z,29.83
2017-12-02T15:29:48.202Z,27.33
2017-12-02T15:32:21.542Z,28.43
2017-12-02T15:34:54.917Z,28.40
2017-12-02T15:37:28.099Z,30.13
2017-12-02T15:40:01.411Z,34.83
2017-12-02T15:42:34.666Z,33.40
2017-12-02T15:45:08.647Z,33.83
2017-12-02T15:47:41.031Z,31.20
2017-12-02T15:50:14.303Z,30.87
2017-12-02T15:52:47.654Z,31.93
2017-12-02T15:55:22.842Z,38.20
2017-12-02T15:57:55.271Z,30.33
2017-12-02T16:00:28.589Z,51.20
2017-12-02T16:03:02.682Z,39.53
2017-12-02T16:05:35.205Z,31.50
2017-12-02T16:08:09.240Z,30.00
2017-12-02T16:10:41.838Z,29.23
2017-12-02T16:13:15.674Z,39.67
2017-12-02T16:15:48.321Z,39.40
2017-12-02T16:18:20.662Z,34.13
2017-12-02T16:20:53.950Z,30.20
2017-12-02T16:23:26.306Z,31.27
2017-12-02T16:25:59.662Z,31.93
2017-12-02T16:28:32.870Z,33.83
2017-12-02T16:31:06.110Z,33.57
2017-12-02T16:33:38.674Z,34.03
2017-12-02T16:36:11.922Z,33.40
2017-12-02T16:38:44.285Z,35.13
2017-12-02T16:41:17.563Z,32.07
2017-12-02T16:43:50.883Z,33.50
2017-12-02T16:46:25.002Z,33.33
2017-12-02T16:48:57.671Z,33.63
2017-12-02T16:51:30.888Z,32.37
2017-12-02T16:54:04.226Z,34.53
2017-12-02T16:56:36.589Z,37.50
2017-12-02T16:59:09.712Z,34.33
2017-12-02T17:01:42.306Z,34.47
2017-12-02T17:04:16.420Z,34.77
2017-12-02T17:06:48.974Z,37.50
2017-12-02T17:09:22.301Z,32.43
2017-12-02T17:11:54.742Z,30.47
2017-12-02T17:14:27.802Z,34.63
2017-12-02T17:17:00.374Z,28.93
2017-12-02T17:19:33.543Z,32.73
2017-12-02T17:22:06.054Z,33.23
2017-12-02T17:24:40.094Z,35.63
2017-12-02T17:27:12.762Z,37.73
2017-12-02T17:29:45.886Z,37.77
2017-12-02T17:32:18.434Z,34.07
2017-12-02T17:34:51.916Z,34.03
2017-12-02T17:37:25.802Z,34.73
2017-12-02T17:39:58.462Z,38.20
2017-12-02T17:42:30.832Z,35.83
2017-12-02T17:45:04.147Z,34.10
2017-12-02T17:47:37.438Z,31.27
2017-12-02T17:50:11.420Z,29.60
2017-12-02T17:52:44.015Z,28.00
2017-12-02T17:55:17.173Z,33.00
2017-12-02T17:57:50.568Z,31.07
2017-12-02T18:00:23.723Z,36.73
2017-12-02T18:02:57.031Z,37.97
2017-12-02T18:05:29.787Z,35.57
2017-12-02T18:08:02.267Z,35.03
2017-12-02T18:10:36.434Z,31.77
2017-12-02T18:13:09.144Z,30.50
2017-12-02T18:15:42.379Z,28.13
2017-12-02T18:18:15.579Z,31.30
2017-12-02T18:20:48.830Z,26.30
2017-12-02T18:23:22.071Z,29.63
2017-12-02T18:25:55.190Z,28.73
2017-12-02T18:28:28.482Z,27.80
2017-12-02T18:31:01.193Z,28.20
2017-12-02T18:33:35.138Z,30.27
2017-12-02T18:36:07.674Z,27.13
2017-12-02T18:38:40.146Z,29.67
2017-12-02T18:41:13.305Z,28.83
2017-12-02T18:43:46.103Z,26.83
2017-12-02T18:46:20.106Z,26.70
2017-12-02T18:48:53.399Z,26.60
2017-12-02T18:51:26.739Z,27.80
2017-12-02T18:54:00.318Z,28.87
2017-12-02T18:56:32.785Z,27.07
2017-12-02T18:59:06.791Z,26.40
2017-12-02T19:01:39.284Z,28.27
2017-12-02T19:04:13.374Z,27.93
2017-12-02T19:06:46.846Z,28.47
2017-12-02T19:09:19.295Z,41.47
2017-12-02T19:11:53.276Z,30.53
2017-12-02T19:14:25.950Z,32.87
2017-12-02T19:16:59.951Z,36.07
2017-12-02T19:19:33.219Z,31.53
2017-12-02T19:22:06.821Z,32.13
2017-12-02T19:24:40.142Z,30.70
2017-12-02T19:27:13.233Z,32.60
2017-12-02T19:29:45.919Z,32.63
2017-12-02T19:32:19.885Z,34.10
2017-12-02T19:34:53.317Z,29.00
2017-12-02T19:37:26.546Z,31.00
2017-12-02T19:39:59.051Z,37.10
2017-12-02T19:42:32.291Z,38.03
2017-12-02T19:45:05.794Z,34.93
2017-12-02T19:47:39.155Z,34.50
2017-12-02T19:50:11.790Z,34.03
2017-12-02T19:52:44.087Z,36.47
2017-12-02T19:55:17.263Z,30.97
2017-12-02T19:57:49.701Z,31.43
2017-12-02T20:00:23.897Z,32.60
2017-12-02T20:02:56.435Z,31.77
2017-12-02T20:05:29.630Z,26.33
2017-12-02T20:08:03.025Z,29.87
2017-12-02T20:10:35.635Z,27.60
2017-12-02T20:13:09.735Z,29.07
2017-12-02T20:15:42.296Z,27.63
2017-12-02T20:18:16.606Z,25.60
2017-12-02T20:20:49.873Z,28.63
2017-12-02T20:23:23.154Z,31.80
2017-12-02T20:25:56.397Z,27.87
2017-12-02T20:28:30.368Z,32.03
2017-12-02T20:31:02.949Z,31.23
2017-12-02T20:33:37.287Z,30.83
2017-12-02T20:36:13.418Z,27.70
2017-12-02T20:38:46.788Z,29.50
2017-12-02T20:41:20.068Z,26.60
2017-12-02T20:43:53.433Z,26.60
2017-12-02T20:46:25.988Z,31.20
2017-12-02T20:48:59.211Z,32.13
2017-12-02T20:51:33.452Z,33.17
2017-12-02T20:54:06.044Z,30.47
2017-12-02T20:56:39.408Z,31.67
2017-12-02T20:59:13.447Z,32.67
2017-12-02T21:01:46.090Z,29.73
2017-12-02T21:04:20.104Z,27.90
2017-12-02T21:06:52.814Z,30.47
2017-12-02T21:09:25.197Z,27.33
2017-12-02T21:11:59.198Z,32.17
2017-12-02T21:14:31.637Z,27.50
2017-12-02T21:17:04.765Z,27.33
2017-12-02T21:19:37.983Z,25.43
2017-12-02T21:22:10.674Z,27.67
2017-12-02T21:24:44.617Z,25.13
2017-12-02T21:27:18.114Z,24.60
2017-12-02T21:29:50.673Z,26.17
2017-12-02T21:32:23.228Z,32.57
2017-12-02T21:34:56.412Z,25.30
2017-12-02T21:37:29.686Z,27.67
2017-12-02T21:40:02.951Z,27.47
2017-12-02T21:42:36.293Z,27.77
2017-12-02T21:45:09.572Z,23.47
2017-12-02T21:47:42.786Z,27.83
2017-12-02T21:50:16.876Z,26.57
2017-12-02T21:52:50.304Z,28.97
2017-12-02T21:55:23.420Z,25.67
2017-12-02T21:57:57.005Z,26.93
2017-12-02T22:00:29.550Z,27.50
2017-12-02T22:03:02.846Z,26.20
2017-12-02T22:05:36.122Z,28.33
2017-12-02T22:08:09.994Z,30.13
2017-12-02T22:10:42.623Z,27.07
2017-12-02T22:13:15.186Z,30.13
2017-12-02T22:15:49.158Z,29.63
2017-12-02T22:18:21.802Z,33.30
2017-12-02T22:20:54.979Z,27.53
2017-12-02T22:23:27.535Z,29.20
2017-12-02T22:26:00.730Z,30.97
2017-12-02T22:28:34.150Z,30.83
2017-12-02T22:31:06.551Z,29.43
2017-12-02T22:33:39.921Z,27.23
2017-12-02T22:36:13.214Z,28.53
2017-12-02T22:38:45.783Z,28.10
2017-12-02T22:41:19.786Z,24.80
2017-12-02T22:43:53.455Z,29.30
2017-12-02T22:46:26.697Z,24.53
2017-12-02T22:48:59.436Z,33.17
2017-12-02T22:51:33.570Z,27.70
2017-12-02T22:54:06.040Z,30.53
2017-12-02T22:56:40.094Z,32.27
2017-12-02T22:59:12.870Z,27.10
2017-12-02T23:01:46.845Z,27.03
2017-12-02T23:04:19.620Z,27.03
2017-12-02T23:06:53.708Z,29.47
2017-12-02T23:09:27.083Z,30.50
2017-12-02T23:11:59.763Z,27.03
2017-12-02T23:14:33.118Z,24.03
2017-12-02T23:17:06.403Z,27.57
2017-12-02T23:19:39.013Z,28.00
2017-12-02T23:22:12.279Z,28.47
2017-12-02T23:24:45.554Z,27.97
2017-12-02T23:27:18.011Z,26.67
2017-12-02T23:29:51.342Z,27.47
2017-12-02T23:32:24.438Z,26.23
2017-12-02T23:34:58.090Z,29.17
2017-12-02T23:37:31.872Z,30.33
2017-12-02T23:40:04.469Z,28.80
2017-12-02T23:42:38.390Z,27.00
2017-12-02T23:45:12.095Z,29.83
2017-12-02T23:47:46.552Z,26.03
2017-12-02T23:50:19.935Z,29.77
2017-12-02T23:52:53.726Z,28.13
2017-12-02T23:55:26.323Z,29.47
2017-12-02T23:58:00.670Z,30.90
